Hopi Indian Reservation, Arizona
Current Conditions -  °F | °C
As of 10:56 PM on Friday 24 Oct 2014 (Local Time) from KINW Reporting Station
Clear Clear  
Wind Chill: 56°   Ceiling: Unl
Heat Index: 56°   Visibility: 10mi
Dew Point: 39°   Wind: 6mph
Humidity: 53%   Direction: 110°ESE
Pressure: 30.25"   Gusts: NA
Location:  35.8773°N, 110.619°W
Report Text: KINW 250556Z AUTO 11005KT 10SM CLR 13/04 A3025 RMK AO2 SLP192 T01330039 10272 20133 51010
Loading
Personal Weather Stations






























Interactive Weather Map
Tropical Storm Tracking
New forecast layout! Learn more

10-Day Weather Forecast

Advertisements
Track Severe Weather on mobile